sensor_id;sensor_type;location;lat;lon;timestamp;P1;durP1;ratioP1;P2;durP2;ratioP2
33952;SDS011;20231;42.710;23.280;2023-07-20T00:01:06;9.57;;;2.85;;
33952;SDS011;20231;42.710;23.280;2023-07-20T00:03:32;7.72;;;2.67;;
33952;SDS011;20231;42.710;23.280;2023-07-20T00:05:57;13.15;;;2.95;;
33952;SDS011;20231;42.710;23.280;2023-07-20T00:08:23;12.02;;;2.80;;
33952;SDS011;20231;42.710;23.280;2023-07-20T00:10:49;11.90;;;3.42;;
33952;SDS011;20231;42.710;23.280;2023-07-20T00:13:14;10.38;;;2.50;;
33952;SDS011;20231;42.710;23.280;2023-07-20T00:15:41;9.93;;;2.67;;
33952;SDS011;20231;42.710;23.280;2023-07-20T00:18:06;9.70;;;2.92;;
33952;SDS011;20231;42.710;23.280;2023-07-20T00:20:32;11.30;;;2.80;;
33952;SDS011;20231;42.710;23.280;2023-07-20T00:22:57;8.25;;;3.00;;
33952;SDS011;20231;42.710;23.280;2023-07-20T00:25:23;13.63;;;3.45;;
33952;SDS011;20231;42.710;23.280;2023-07-20T00:27:49;13.20;;;3.10;;
33952;SDS011;20231;42.710;23.280;2023-07-20T00:30:15;8.43;;;3.17;;
33952;SDS011;20231;42.710;23.280;2023-07-20T00:32:41;11.10;;;3.05;;
33952;SDS011;20231;42.710;23.280;2023-07-20T00:35:07;11.68;;;2.67;;
33952;SDS011;20231;42.710;23.280;2023-07-20T00:37:33;11.18;;;3.08;;
33952;SDS011;20231;42.710;23.280;2023-07-20T00:39:58;11.05;;;3.05;;
33952;SDS011;20231;42.710;23.280;2023-07-20T00:42:24;9.18;;;2.90;;
33952;SDS011;20231;42.710;23.280;2023-07-20T00:44:49;7.65;;;2.60;;
33952;SDS011;20231;42.710;23.280;2023-07-20T00:47:14;9.00;;;2.85;;
33952;SDS011;20231;42.710;23.280;2023-07-20T00:49:40;10.75;;;3.00;;
33952;SDS011;20231;42.710;23.280;2023-07-20T00:52:06;13.20;;;3.25;;
33952;SDS011;20231;42.710;23.280;2023-07-20T00:54:33;7.85;;;2.60;;
33952;SDS011;20231;42.710;23.280;2023-07-20T00:56:59;9.32;;;3.03;;
33952;SDS011;20231;42.710;23.280;2023-07-20T00:59:26;10.05;;;3.25;;
33952;SDS011;20231;42.710;23.280;2023-07-20T01:01:52;15.10;;;2.92;;
33952;SDS011;20231;42.710;23.280;2023-07-20T01:04:17;10.50;;;2.88;;
33952;SDS011;20231;42.710;23.280;2023-07-20T01:10:06;8.25;;;2.58;;
33952;SDS011;20231;42.710;23.280;2023-07-20T01:12:43;11.00;;;2.80;;
33952;SDS011;20231;42.710;23.280;2023-07-20T01:15:13;10.75;;;3.30;;
33952;SDS011;20231;42.710;23.280;2023-07-20T01:17:39;7.22;;;2.70;;
33952;SDS011;20231;42.710;23.280;2023-07-20T01:20:05;9.65;;;3.05;;
33952;SDS011;20231;42.710;23.280;2023-07-20T01:33:56;8.90;;;2.92;;
33952;SDS011;20231;42.710;23.280;2023-07-20T01:36:24;8.85;;;2.70;;
33952;SDS011;20231;42.710;23.280;2023-07-20T01:38:51;9.43;;;3.15;;
33952;SDS011;20231;42.710;23.280;2023-07-20T01:41:17;10.95;;;2.85;;
33952;SDS011;20231;42.710;23.280;2023-07-20T01:43:43;7.30;;;2.83;;
33952;SDS011;20231;42.710;23.280;2023-07-20T01:46:09;9.63;;;3.38;;
33952;SDS011;20231;42.710;23.280;2023-07-20T01:48:34;10.38;;;2.65;;
33952;SDS011;20231;42.710;23.280;2023-07-20T01:51:00;19.83;;;3.45;;
33952;SDS011;20231;42.710;23.280;2023-07-20T01:53:25;11.10;;;2.75;;
33952;SDS011;20231;42.710;23.280;2023-07-20T01:55:53;8.50;;;2.70;;
33952;SDS011;20231;42.710;23.280;2023-07-20T01:58:22;10.98;;;3.00;;
33952;SDS011;20231;42.710;23.280;2023-07-20T02:00:47;8.85;;;2.90;;
33952;SDS011;20231;42.710;23.280;2023-07-20T02:03:13;8.00;;;2.90;;
33952;SDS011;20231;42.710;23.280;2023-07-20T02:05:38;8.88;;;2.40;;
33952;SDS011;20231;42.710;23.280;2023-07-20T02:08:04;7.97;;;2.70;;
33952;SDS011;20231;42.710;23.280;2023-07-20T02:10:30;10.02;;;3.20;;
33952;SDS011;20231;42.710;23.280;2023-07-20T02:12:55;11.38;;;3.17;;
33952;SDS011;20231;42.710;23.280;2023-07-20T02:15:21;9.27;;;3.03;;
33952;SDS011;20231;42.710;23.280;2023-07-20T02:17:47;13.57;;;2.85;;
33952;SDS011;20231;42.710;23.280;2023-07-20T02:20:12;11.93;;;3.05;;
33952;SDS011;20231;42.710;23.280;2023-07-20T02:22:38;13.35;;;3.30;;
33952;SDS011;20231;42.710;23.280;2023-07-20T02:25:04;9.60;;;2.83;;
33952;SDS011;20231;42.710;23.280;2023-07-20T02:27:32;8.57;;;2.55;;
33952;SDS011;20231;42.710;23.280;2023-07-20T02:30:00;9.32;;;2.95;;
33952;SDS011;20231;42.710;23.280;2023-07-20T02:32:25;8.98;;;2.38;;
33952;SDS011;20231;42.710;23.280;2023-07-20T02:34:51;9.90;;;2.90;;
33952;SDS011;20231;42.710;23.280;2023-07-20T02:37:16;14.00;;;4.05;;
33952;SDS011;20231;42.710;23.280;2023-07-20T02:39:42;13.75;;;2.90;;
33952;SDS011;20231;42.710;23.280;2023-07-20T02:42:08;10.00;;;3.20;;
33952;SDS011;20231;42.710;23.280;2023-07-20T02:44:33;9.70;;;3.30;;
33952;SDS011;20231;42.710;23.280;2023-07-20T02:46:59;12.70;;;3.35;;
33952;SDS011;20231;42.710;23.280;2023-07-20T02:49:24;15.93;;;3.42;;
33952;SDS011;20231;42.710;23.280;2023-07-20T02:51:50;8.65;;;3.40;;
33952;SDS011;20231;42.710;23.280;2023-07-20T02:54:15;10.55;;;3.10;;
33952;SDS011;20231;42.710;23.280;2023-07-20T02:56:40;18.05;;;3.17;;
33952;SDS011;20231;42.710;23.280;2023-07-20T02:59:06;18.27;;;3.22;;
33952;SDS011;20231;42.710;23.280;2023-07-20T03:01:31;12.68;;;3.08;;
33952;SDS011;20231;42.710;23.280;2023-07-20T03:03:57;10.77;;;3.55;;
33952;SDS011;20231;42.710;23.280;2023-07-20T03:06:22;10.13;;;3.20;;
33952;SDS011;20231;42.710;23.280;2023-07-20T03:08:48;10.30;;;3.20;;
33952;SDS011;20231;42.710;23.280;2023-07-20T03:11:16;15.55;;;3.75;;
33952;SDS011;20231;42.710;23.280;2023-07-20T03:13:42;11.50;;;3.10;;
33952;SDS011;20231;42.710;23.280;2023-07-20T03:16:11;16.92;;;3.92;;
33952;SDS011;20231;42.710;23.280;2023-07-20T03:18:38;14.73;;;3.88;;
33952;SDS011;20231;42.710;23.280;2023-07-20T03:21:04;11.55;;;3.65;;
33952;SDS011;20231;42.710;23.280;2023-07-20T03:23:33;6.70;;;3.25;;
33952;SDS011;20231;42.710;23.280;2023-07-20T03:25:58;13.50;;;4.15;;
33952;SDS011;20231;42.710;23.280;2023-07-20T03:28:24;12.40;;;3.78;;
33952;SDS011;20231;42.710;23.280;2023-07-20T03:30:53;17.30;;;3.65;;
33952;SDS011;20231;42.710;23.280;2023-07-20T03:33:19;10.02;;;3.72;;
33952;SDS011;20231;42.710;23.280;2023-07-20T03:35:45;12.77;;;3.95;;
33952;SDS011;20231;42.710;23.280;2023-07-20T03:38:10;10.50;;;3.10;;
33952;SDS011;20231;42.710;23.280;2023-07-20T03:40:36;15.43;;;3.20;;
33952;SDS011;20231;42.710;23.280;2023-07-20T03:43:01;10.82;;;3.88;;
33952;SDS011;20231;42.710;23.280;2023-07-20T03:45:27;18.98;;;3.75;;
33952;SDS011;20231;42.710;23.280;2023-07-20T03:47:52;16.20;;;3.88;;
33952;SDS011;20231;42.710;23.280;2023-07-20T03:50:17;12.65;;;3.65;;
33952;SDS011;20231;42.710;23.280;2023-07-20T03:52:43;10.52;;;3.97;;
33952;SDS011;20231;42.710;23.280;2023-07-20T03:55:08;18.90;;;3.78;;
33952;SDS011;20231;42.710;23.280;2023-07-20T03:57:34;14.98;;;3.88;;
33952;SDS011;20231;42.710;23.280;2023-07-20T03:59:59;9.52;;;3.70;;
33952;SDS011;20231;42.710;23.280;2023-07-20T04:02:25;19.40;;;5.15;;
33952;SDS011;20231;42.710;23.280;2023-07-20T04:04:50;10.15;;;3.67;;
33952;SDS011;20231;42.710;23.280;2023-07-20T04:07:16;15.15;;;4.15;;
33952;SDS011;20231;42.710;23.280;2023-07-20T04:09:41;15.40;;;4.32;;
33952;SDS011;20231;42.710;23.280;2023-07-20T04:12:07;10.77;;;4.13;;
33952;SDS011;20231;42.710;23.280;2023-07-20T04:14:32;12.18;;;4.03;;
33952;SDS011;20231;42.710;23.280;2023-07-20T04:16:58;13.57;;;3.88;;
33952;SDS011;20231;42.710;23.280;2023-07-20T04:19:25;14.90;;;4.25;;
33952;SDS011;20231;42.710;23.280;2023-07-20T04:21:50;11.63;;;3.88;;
33952;SDS011;20231;42.710;23.280;2023-07-20T04:24:16;8.80;;;3.72;;
33952;SDS011;20231;42.710;23.280;2023-07-20T04:26:41;11.98;;;4.22;;
33952;SDS011;20231;42.710;23.280;2023-07-20T04:29:07;19.58;;;4.70;;
33952;SDS011;20231;42.710;23.280;2023-07-20T04:31:33;13.10;;;3.90;;
33952;SDS011;20231;42.710;23.280;2023-07-20T04:33:59;11.45;;;4.10;;
33952;SDS011;20231;42.710;23.280;2023-07-20T04:36:24;15.70;;;4.25;;
33952;SDS011;20231;42.710;23.280;2023-07-20T04:38:50;14.00;;;3.90;;
33952;SDS011;20231;42.710;23.280;2023-07-20T04:41:15;14.98;;;4.43;;
33952;SDS011;20231;42.710;23.280;2023-07-20T04:43:41;16.35;;;3.83;;
33952;SDS011;20231;42.710;23.280;2023-07-20T04:46:08;12.15;;;4.07;;
33952;SDS011;20231;42.710;23.280;2023-07-20T04:48:34;14.63;;;4.03;;
33952;SDS011;20231;42.710;23.280;2023-07-20T04:50:59;22.42;;;4.72;;
33952;SDS011;20231;42.710;23.280;2023-07-20T04:53:24;20.65;;;4.72;;
33952;SDS011;20231;42.710;23.280;2023-07-20T04:55:50;12.80;;;4.30;;
33952;SDS011;20231;42.710;23.280;2023-07-20T04:58:16;15.35;;;4.05;;
33952;SDS011;20231;42.710;23.280;2023-07-20T05:00:46;18.67;;;4.30;;
33952;SDS011;20231;42.710;23.280;2023-07-20T05:03:13;22.50;;;4.10;;
33952;SDS011;20231;42.710;23.280;2023-07-20T05:05:38;14.35;;;4.65;;
33952;SDS011;20231;42.710;23.280;2023-07-20T05:08:04;20.65;;;4.80;;
33952;SDS011;20231;42.710;23.280;2023-07-20T05:10:29;19.60;;;4.78;;
33952;SDS011;20231;42.710;23.280;2023-07-20T05:12:55;24.15;;;4.65;;
33952;SDS011;20231;42.710;23.280;2023-07-20T05:15:20;23.95;;;5.45;;
33952;SDS011;20231;42.710;23.280;2023-07-20T05:17:45;14.63;;;4.63;;
33952;SDS011;20231;42.710;23.280;2023-07-20T05:20:13;18.35;;;4.88;;
33952;SDS011;20231;42.710;23.280;2023-07-20T05:22:39;14.60;;;4.90;;
33952;SDS011;20231;42.710;23.280;2023-07-20T05:25:07;21.70;;;5.47;;
33952;SDS011;20231;42.710;23.280;2023-07-20T05:27:34;16.60;;;5.53;;
33952;SDS011;20231;42.710;23.280;2023-07-20T05:30:01;13.68;;;5.13;;
33952;SDS011;20231;42.710;23.280;2023-07-20T05:32:27;16.00;;;5.13;;
33952;SDS011;20231;42.710;23.280;2023-07-20T05:34:52;17.00;;;5.88;;
33952;SDS011;20231;42.710;23.280;2023-07-20T05:37:19;20.60;;;7.13;;
33952;SDS011;20231;42.710;23.280;2023-07-20T05:39:44;19.45;;;6.40;;
33952;SDS011;20231;42.710;23.280;2023-07-20T05:42:10;16.10;;;6.40;;
33952;SDS011;20231;42.710;23.280;2023-07-20T05:44:35;17.75;;;6.35;;
33952;SDS011;20231;42.710;23.280;2023-07-20T05:47:00;21.70;;;6.18;;
33952;SDS011;20231;42.710;23.280;2023-07-20T05:49:27;22.67;;;6.93;;
33952;SDS011;20231;42.710;23.280;2023-07-20T05:51:54;16.70;;;6.38;;
33952;SDS011;20231;42.710;23.280;2023-07-20T05:54:20;18.58;;;6.03;;
33952;SDS011;20231;42.710;23.280;2023-07-20T05:56:46;18.08;;;5.38;;
33952;SDS011;20231;42.710;23.280;2023-07-20T05:59:12;17.70;;;6.35;;
33952;SDS011;20231;42.710;23.280;2023-07-20T06:01:37;19.15;;;6.03;;
33952;SDS011;20231;42.710;23.280;2023-07-20T06:04:03;19.15;;;5.40;;
33952;SDS011;20231;42.710;23.280;2023-07-20T06:06:28;19.67;;;6.03;;
33952;SDS011;20231;42.710;23.280;2023-07-20T06:08:54;22.17;;;7.55;;
33952;SDS011;20231;42.710;23.280;2023-07-20T06:11:19;21.30;;;5.78;;
33952;SDS011;20231;42.710;23.280;2023-07-20T06:13:45;18.70;;;6.70;;
33952;SDS011;20231;42.710;23.280;2023-07-20T06:16:10;23.73;;;5.93;;
33952;SDS011;20231;42.710;23.280;2023-07-20T06:18:36;13.20;;;6.00;;
33952;SDS011;20231;42.710;23.280;2023-07-20T06:21:02;25.08;;;5.50;;
33952;SDS011;20231;42.710;23.280;2023-07-20T06:23:27;19.42;;;6.43;;
33952;SDS011;20231;42.710;23.280;2023-07-20T06:25:52;19.80;;;6.05;;
33952;SDS011;20231;42.710;23.280;2023-07-20T06:28:18;24.83;;;5.28;;
33952;SDS011;20231;42.710;23.280;2023-07-20T06:30:43;20.30;;;5.22;;
33952;SDS011;20231;42.710;23.280;2023-07-20T06:33:09;18.92;;;5.78;;
33952;SDS011;20231;42.710;23.280;2023-07-20T06:35:34;15.98;;;5.63;;
33952;SDS011;20231;42.710;23.280;2023-07-20T06:38:00;13.25;;;5.35;;
33952;SDS011;20231;42.710;23.280;2023-07-20T06:40:26;14.85;;;6.05;;
33952;SDS011;20231;42.710;23.280;2023-07-20T06:42:52;16.42;;;5.00;;
33952;SDS011;20231;42.710;23.280;2023-07-20T06:45:17;23.15;;;6.00;;
33952;SDS011;20231;42.710;23.280;2023-07-20T06:47:42;12.60;;;4.95;;
33952;SDS011;20231;42.710;23.280;2023-07-20T06:50:08;17.48;;;5.32;;
33952;SDS011;20231;42.710;23.280;2023-07-20T06:52:34;14.85;;;5.80;;
33952;SDS011;20231;42.710;23.280;2023-07-20T06:55:00;14.10;;;4.75;;
33952;SDS011;20231;42.710;23.280;2023-07-20T06:57:25;15.77;;;5.10;;
33952;SDS011;20231;42.710;23.280;2023-07-20T06:59:51;14.60;;;5.15;;
33952;SDS011;20231;42.710;23.280;2023-07-20T07:02:16;17.95;;;5.22;;
33952;SDS011;20231;42.710;23.280;2023-07-20T07:04:42;27.63;;;6.18;;
33952;SDS011;20231;42.710;23.280;2023-07-20T07:07:07;25.65;;;6.68;;
33952;SDS011;20231;42.710;23.280;2023-07-20T07:09:34;20.05;;;6.07;;
33952;SDS011;20231;42.710;23.280;2023-07-20T07:11:59;15.68;;;5.63;;
33952;SDS011;20231;42.710;23.280;2023-07-20T07:14:25;16.70;;;4.90;;
33952;SDS011;20231;42.710;23.280;2023-07-20T07:16:50;15.77;;;5.75;;
33952;SDS011;20231;42.710;23.280;2023-07-20T07:19:16;17.20;;;5.07;;
33952;SDS011;20231;42.710;23.280;2023-07-20T07:21:41;22.55;;;4.70;;
33952;SDS011;20231;42.710;23.280;2023-07-20T07:24:06;13.73;;;4.47;;
33952;SDS011;20231;42.710;23.280;2023-07-20T07:26:33;14.50;;;4.22;;
33952;SDS011;20231;42.710;23.280;2023-07-20T07:28:59;20.02;;;5.28;;
33952;SDS011;20231;42.710;23.280;2023-07-20T07:31:24;17.58;;;4.72;;
33952;SDS011;20231;42.710;23.280;2023-07-20T07:33:50;16.35;;;5.32;;
33952;SDS011;20231;42.710;23.280;2023-07-20T07:36:16;11.55;;;4.00;;
33952;SDS011;20231;42.710;23.280;2023-07-20T07:38:41;14.65;;;4.80;;
33952;SDS011;20231;42.710;23.280;2023-07-20T07:41:06;15.55;;;5.32;;
33952;SDS011;20231;42.710;23.280;2023-07-20T07:43:32;17.48;;;5.28;;
33952;SDS011;20231;42.710;23.280;2023-07-20T07:45:58;13.02;;;4.70;;
33952;SDS011;20231;42.710;23.280;2023-07-20T07:48:23;23.95;;;4.85;;
33952;SDS011;20231;42.710;23.280;2023-07-20T07:50:50;16.08;;;4.72;;
33952;SDS011;20231;42.710;23.280;2023-07-20T07:53:16;14.57;;;5.05;;
33952;SDS011;20231;42.710;23.280;2023-07-20T07:55:41;11.80;;;4.47;;
33952;SDS011;20231;42.710;23.280;2023-07-20T07:58:06;15.75;;;4.22;;
33952;SDS011;20231;42.710;23.280;2023-07-20T08:00:32;15.38;;;4.60;;
33952;SDS011;20231;42.710;23.280;2023-07-20T08:02:57;28.10;;;5.70;;
33952;SDS011;20231;42.710;23.280;2023-07-20T08:05:23;16.23;;;4.72;;
33952;SDS011;20231;42.710;23.280;2023-07-20T08:07:48;12.77;;;4.80;;
33952;SDS011;20231;42.710;23.280;2023-07-20T08:10:14;17.50;;;4.65;;
33952;SDS011;20231;42.710;23.280;2023-07-20T08:12:39;13.63;;;4.65;;
33952;SDS011;20231;42.710;23.280;2023-07-20T08:15:05;16.27;;;4.95;;
33952;SDS011;20231;42.710;23.280;2023-07-20T08:17:30;20.50;;;4.75;;
33952;SDS011;20231;42.710;23.280;2023-07-20T08:19:56;16.80;;;4.18;;
33952;SDS011;20231;42.710;23.280;2023-07-20T08:22:21;16.17;;;4.03;;
33952;SDS011;20231;42.710;23.280;2023-07-20T08:24:46;12.18;;;3.50;;
33952;SDS011;20231;42.710;23.280;2023-07-20T08:27:12;11.70;;;3.63;;
33952;SDS011;20231;42.710;23.280;2023-07-20T08:29:37;10.98;;;3.58;;
33952;SDS011;20231;42.710;23.280;2023-07-20T08:32:04;12.95;;;3.42;;
33952;SDS011;20231;42.710;23.280;2023-07-20T08:34:30;14.68;;;4.35;;
33952;SDS011;20231;42.710;23.280;2023-07-20T08:36:56;11.68;;;3.30;;
33952;SDS011;20231;42.710;23.280;2023-07-20T08:39:22;12.20;;;3.28;;
33952;SDS011;20231;42.710;23.280;2023-07-20T08:41:48;12.30;;;3.75;;
33952;SDS011;20231;42.710;23.280;2023-07-20T08:44:14;19.70;;;3.55;;
33952;SDS011;20231;42.710;23.280;2023-07-20T08:46:40;10.57;;;4.07;;
33952;SDS011;20231;42.710;23.280;2023-07-20T08:49:06;11.50;;;3.30;;
33952;SDS011;20231;42.710;23.280;2023-07-20T08:51:32;14.75;;;3.63;;
33952;SDS011;20231;42.710;23.280;2023-07-20T08:53:59;15.50;;;3.45;;
33952;SDS011;20231;42.710;23.280;2023-07-20T08:56:25;17.15;;;3.60;;
33952;SDS011;20231;42.710;23.280;2023-07-20T08:58:51;14.30;;;3.10;;
33952;SDS011;20231;42.710;23.280;2023-07-20T09:01:19;13.98;;;3.92;;
33952;SDS011;20231;42.710;23.280;2023-07-20T09:03:45;16.85;;;3.28;;
33952;SDS011;20231;42.710;23.280;2023-07-20T09:06:11;12.55;;;3.88;;
33952;SDS011;20231;42.710;23.280;2023-07-20T09:08:38;10.20;;;3.20;;
33952;SDS011;20231;42.710;23.280;2023-07-20T09:11:04;8.68;;;3.03;;
33952;SDS011;20231;42.710;23.280;2023-07-20T09:13:31;12.73;;;3.28;;
33952;SDS011;20231;42.710;23.280;2023-07-20T09:15:57;12.65;;;3.78;;
33952;SDS011;20231;42.710;23.280;2023-07-20T09:18:32;8.68;;;3.13;;
33952;SDS011;20231;42.710;23.280;2023-07-20T09:21:02;7.45;;;3.60;;
33952;SDS011;20231;42.710;23.280;2023-07-20T09:23:38;12.70;;;3.83;;
33952;SDS011;20231;42.710;23.280;2023-07-20T09:26:10;11.68;;;3.15;;
33952;SDS011;20231;42.710;23.280;2023-07-20T09:28:41;17.00;;;3.45;;
33952;SDS011;20231;42.710;23.280;2023-07-20T09:31:18;21.55;;;3.95;;
33952;SDS011;20231;42.710;23.280;2023-07-20T09:33:45;16.85;;;3.45;;
33952;SDS011;20231;42.710;23.280;2023-07-20T09:36:11;14.70;;;3.30;;
33952;SDS011;20231;42.710;23.280;2023-07-20T09:38:37;15.63;;;3.67;;
33952;SDS011;20231;42.710;23.280;2023-07-20T09:41:05;13.32;;;4.07;;
33952;SDS011;20231;42.710;23.280;2023-07-20T09:43:34;15.57;;;3.72;;
33952;SDS011;20231;42.710;23.280;2023-07-20T09:45:59;16.85;;;4.07;;
33952;SDS011;20231;42.710;23.280;2023-07-20T09:48:25;15.23;;;3.30;;
33952;SDS011;20231;42.710;23.280;2023-07-20T09:50:53;11.82;;;3.00;;
33952;SDS011;20231;42.710;23.280;2023-07-20T09:53:19;11.88;;;3.22;;
33952;SDS011;20231;42.710;23.280;2023-07-20T09:55:45;12.73;;;3.50;;
33952;SDS011;20231;42.710;23.280;2023-07-20T09:58:14;12.70;;;3.75;;
33952;SDS011;20231;42.710;23.280;2023-07-20T10:00:41;16.63;;;3.20;;
33952;SDS011;20231;42.710;23.280;2023-07-20T10:03:16;7.55;;;3.05;;
33952;SDS011;20231;42.710;23.280;2023-07-20T10:05:46;6.45;;;2.45;;
33952;SDS011;20231;42.710;23.280;2023-07-20T10:08:16;9.82;;;3.10;;
33952;SDS011;20231;42.710;23.280;2023-07-20T10:10:44;9.63;;;3.05;;
33952;SDS011;20231;42.710;23.280;2023-07-20T10:13:14;10.32;;;3.53;;
33952;SDS011;20231;42.710;23.280;2023-07-20T10:15:58;12.30;;;3.03;;
33952;SDS011;20231;42.710;23.280;2023-07-20T10:21:13;8.32;;;2.65;;
33952;SDS011;20231;42.710;23.280;2023-07-20T10:23:40;14.13;;;3.40;;
33952;SDS011;20231;42.710;23.280;2023-07-20T10:26:06;12.98;;;2.63;;
33952;SDS011;20231;42.710;23.280;2023-07-20T10:28:33;12.43;;;2.55;;
33952;SDS011;20231;42.710;23.280;2023-07-20T10:30:59;9.95;;;2.85;;
33952;SDS011;20231;42.710;23.280;2023-07-20T10:33:24;13.27;;;3.13;;
33952;SDS011;20231;42.710;23.280;2023-07-20T10:35:50;6.13;;;2.72;;
33952;SDS011;20231;42.710;23.280;2023-07-20T10:38:17;12.60;;;2.97;;
33952;SDS011;20231;42.710;23.280;2023-07-20T10:40:42;9.30;;;3.08;;
33952;SDS011;20231;42.710;23.280;2023-07-20T10:43:08;5.88;;;2.38;;
33952;SDS011;20231;42.710;23.280;2023-07-20T10:45:53;11.15;;;2.85;;
33952;SDS011;20231;42.710;23.280;2023-07-20T10:53:41;11.45;;;3.13;;
33952;SDS011;20231;42.710;23.280;2023-07-20T10:56:13;13.13;;;2.88;;
33952;SDS011;20231;42.710;23.280;2023-07-20T10:58:40;11.23;;;3.08;;
33952;SDS011;20231;42.710;23.280;2023-07-20T11:01:07;9.02;;;2.65;;
33952;SDS011;20231;42.710;23.280;2023-07-20T11:03:34;12.02;;;3.00;;
33952;SDS011;20231;42.710;23.280;2023-07-20T11:09:15;9.15;;;3.15;;
33952;SDS011;20231;42.710;23.280;2023-07-20T11:11:41;7.50;;;3.00;;
33952;SDS011;20231;42.710;23.280;2023-07-20T11:14:09;14.82;;;3.35;;
33952;SDS011;20231;42.710;23.280;2023-07-20T11:16:45;12.27;;;3.28;;
33952;SDS011;20231;42.710;23.280;2023-07-20T11:21:50;8.10;;;3.03;;
33952;SDS011;20231;42.710;23.280;2023-07-20T11:24:17;11.80;;;3.47;;
33952;SDS011;20231;42.710;23.280;2023-07-20T11:26:47;13.60;;;3.30;;
33952;SDS011;20231;42.710;23.280;2023-07-20T11:29:22;17.08;;;3.75;;
33952;SDS011;20231;42.710;23.280;2023-07-20T11:31:49;13.73;;;3.88;;
33952;SDS011;20231;42.710;23.280;2023-07-20T11:34:17;14.75;;;3.50;;
33952;SDS011;20231;42.710;23.280;2023-07-20T11:36:44;9.90;;;3.88;;
33952;SDS011;20231;42.710;23.280;2023-07-20T11:39:11;8.57;;;3.58;;
33952;SDS011;20231;42.710;23.280;2023-07-20T11:41:43;8.98;;;3.55;;
33952;SDS011;20231;42.710;23.280;2023-07-20T11:44:11;8.00;;;4.13;;
33952;SDS011;20231;42.710;23.280;2023-07-20T11:46:41;9.32;;;3.95;;
33952;SDS011;20231;42.710;23.280;2023-07-20T11:49:09;12.88;;;3.75;;
33952;SDS011;20231;42.710;23.280;2023-07-20T11:51:36;13.48;;;4.40;;
33952;SDS011;20231;42.710;23.280;2023-07-20T11:54:03;10.75;;;4.40;;
33952;SDS011;20231;42.710;23.280;2023-07-20T11:56:30;11.27;;;3.47;;
33952;SDS011;20231;42.710;23.280;2023-07-20T11:58:56;10.63;;;4.22;;
33952;SDS011;20231;42.710;23.280;2023-07-20T12:01:24;13.10;;;3.75;;
33952;SDS011;20231;42.710;23.280;2023-07-20T12:03:53;12.15;;;4.15;;
33952;SDS011;20231;42.710;23.280;2023-07-20T12:06:25;9.43;;;3.65;;
33952;SDS011;20231;42.710;23.280;2023-07-20T12:08:54;10.95;;;3.67;;
33952;SDS011;20231;42.710;23.280;2023-07-20T12:11:37;9.20;;;3.33;;
33952;SDS011;20231;42.710;23.280;2023-07-20T12:14:04;7.35;;;3.25;;
33952;SDS011;20231;42.710;23.280;2023-07-20T12:16:32;9.23;;;3.35;;
33952;SDS011;20231;42.710;23.280;2023-07-20T12:21:27;7.88;;;3.53;;
33952;SDS011;20231;42.710;23.280;2023-07-20T12:23:52;12.75;;;3.95;;
33952;SDS011;20231;42.710;23.280;2023-07-20T12:26:18;11.38;;;3.58;;
33952;SDS011;20231;42.710;23.280;2023-07-20T12:28:47;9.93;;;4.40;;
33952;SDS011;20231;42.710;23.280;2023-07-20T12:31:12;9.35;;;3.75;;
33952;SDS011;20231;42.710;23.280;2023-07-20T12:33:38;12.57;;;3.60;;
33952;SDS011;20231;42.710;23.280;2023-07-20T12:36:04;7.47;;;3.25;;
33952;SDS011;20231;42.710;23.280;2023-07-20T12:38:29;13.00;;;3.20;;
33952;SDS011;20231;42.710;23.280;2023-07-20T12:40:58;17.38;;;3.55;;
33952;SDS011;20231;42.710;23.280;2023-07-20T12:43:25;14.13;;;3.75;;
33952;SDS011;20231;42.710;23.280;2023-07-20T12:45:51;14.10;;;3.55;;
33952;SDS011;20231;42.710;23.280;2023-07-20T12:48:16;7.65;;;3.03;;
33952;SDS011;20231;42.710;23.280;2023-07-20T12:50:42;10.15;;;3.70;;
33952;SDS011;20231;42.710;23.280;2023-07-20T12:53:07;9.40;;;3.15;;
33952;SDS011;20231;42.710;23.280;2023-07-20T12:55:34;6.47;;;2.88;;
33952;SDS011;20231;42.710;23.280;2023-07-20T12:57:59;11.75;;;3.90;;
33952;SDS011;20231;42.710;23.280;2023-07-20T13:00:25;7.60;;;3.20;;
33952;SDS011;20231;42.710;23.280;2023-07-20T13:02:51;10.93;;;3.72;;
33952;SDS011;20231;42.710;23.280;2023-07-20T13:05:16;8.13;;;3.47;;
33952;SDS011;20231;42.710;23.280;2023-07-20T13:07:42;9.63;;;2.92;;
33952;SDS011;20231;42.710;23.280;2023-07-20T13:10:08;9.73;;;3.70;;
33952;SDS011;20231;42.710;23.280;2023-07-20T13:12:35;12.73;;;3.42;;
33952;SDS011;20231;42.710;23.280;2023-07-20T13:15:02;16.33;;;3.38;;
33952;SDS011;20231;42.710;23.280;2023-07-20T13:17:30;13.05;;;3.60;;
33952;SDS011;20231;42.710;23.280;2023-07-20T13:19:59;12.95;;;2.65;;
33952;SDS011;20231;42.710;23.280;2023-07-20T13:22:24;9.68;;;3.15;;
33952;SDS011;20231;42.710;23.280;2023-07-20T13:24:50;8.02;;;3.58;;
33952;SDS011;20231;42.710;23.280;2023-07-20T13:27:16;12.60;;;3.50;;
33952;SDS011;20231;42.710;23.280;2023-07-20T13:29:42;12.25;;;4.05;;
33952;SDS011;20231;42.710;23.280;2023-07-20T13:32:07;8.15;;;3.10;;
33952;SDS011;20231;42.710;23.280;2023-07-20T13:34:34;17.83;;;3.42;;
33952;SDS011;20231;42.710;23.280;2023-07-20T13:36:59;17.23;;;3.47;;
33952;SDS011;20231;42.710;23.280;2023-07-20T13:39:25;13.23;;;3.40;;
33952;SDS011;20231;42.710;23.280;2023-07-20T13:41:53;10.25;;;3.17;;
33952;SDS011;20231;42.710;23.280;2023-07-20T13:44:19;8.10;;;2.53;;
33952;SDS011;20231;42.710;23.280;2023-07-20T13:46:45;14.82;;;3.65;;
33952;SDS011;20231;42.710;23.280;2023-07-20T13:49:14;11.45;;;3.38;;
33952;SDS011;20231;42.710;23.280;2023-07-20T13:51:43;9.98;;;3.28;;
33952;SDS011;20231;42.710;23.280;2023-07-20T13:54:08;13.00;;;3.55;;
33952;SDS011;20231;42.710;23.280;2023-07-20T13:56:34;9.30;;;3.00;;
33952;SDS011;20231;42.710;23.280;2023-07-20T13:59:00;12.02;;;3.13;;
33952;SDS011;20231;42.710;23.280;2023-07-20T14:01:26;8.32;;;3.13;;
33952;SDS011;20231;42.710;23.280;2023-07-20T14:03:53;10.15;;;3.08;;
33952;SDS011;20231;42.710;23.280;2023-07-20T14:06:18;11.50;;;4.03;;
33952;SDS011;20231;42.710;23.280;2023-07-20T14:08:44;8.75;;;3.15;;
33952;SDS011;20231;42.710;23.280;2023-07-20T14:11:13;12.45;;;3.33;;
33952;SDS011;20231;42.710;23.280;2023-07-20T14:13:39;14.48;;;3.72;;
33952;SDS011;20231;42.710;23.280;2023-07-20T14:16:05;12.60;;;3.00;;
33952;SDS011;20231;42.710;23.280;2023-07-20T14:18:30;11.30;;;3.25;;
33952;SDS011;20231;42.710;23.280;2023-07-20T14:20:56;9.02;;;2.83;;
33952;SDS011;20231;42.710;23.280;2023-07-20T14:23:21;8.27;;;2.90;;
33952;SDS011;20231;42.710;23.280;2023-07-20T14:25:47;12.40;;;3.17;;
33952;SDS011;20231;42.710;23.280;2023-07-20T14:28:13;8.85;;;2.80;;
33952;SDS011;20231;42.710;23.280;2023-07-20T14:30:39;12.80;;;3.30;;
33952;SDS011;20231;42.710;23.280;2023-07-20T14:33:05;14.00;;;3.83;;
33952;SDS011;20231;42.710;23.280;2023-07-20T14:35:30;12.00;;;3.10;;
33952;SDS011;20231;42.710;23.280;2023-07-20T14:37:56;7.50;;;2.50;;
33952;SDS011;20231;42.710;23.280;2023-07-20T14:40:21;15.05;;;3.35;;
33952;SDS011;20231;42.710;23.280;2023-07-20T14:42:46;13.95;;;3.35;;
33952;SDS011;20231;42.710;23.280;2023-07-20T14:45:12;8.75;;;3.05;;
33952;SDS011;20231;42.710;23.280;2023-07-20T14:47:37;12.25;;;3.63;;
33952;SDS011;20231;42.710;23.280;2023-07-20T14:50:03;9.43;;;3.13;;